Wetterdaten: Woche 19.12.16 - 25.12.16 (KW51)
Datum Zeit Temp. Aussen Temp. o. S. +5cm Feuchte Auss BlattFeu 1 Luftdruck Regen Sonnenschein Regendauer Solar Windben Empfang
19.12.2016 00:00 5,6 C 5,6 C 4,1 C 97 % 3 lf 1030,8 hPa 0,0 l/m 0,00 h 0,00 h 5 W/m 2,8 km/h (1 Bft) 93,83 %
19.12.2016 01:00 5,5 C 5,6 C 3,9 C 97 % 3 lf 1030,7 hPa 0,0 l/m 0,00 h 0,00 h 5 W/m 0,0 km/h (0 Bft) 95,59 %
19.12.2016 02:00 5,4 C 5,6 C 3,9 C 97 % 3 lf 1030,4 hPa 0,0 l/m 0,00 h 0,00 h 5 W/m 0,0 km/h (0 Bft) 95,66 %
19.12.2016 03:00 5,3 C 5,1 C 3,7 C 98 % 4 lf 1030,0 hPa 0,0 l/m 0,00 h 0,00 h 5 W/m 0,0 km/h (0 Bft) 97,15 %
19.12.2016 04:00 4,9 C 3,9 C 2,0 C 98 % 12 lf 1029,6 hPa 0,0 l/m 0,00 h 0,00 h 5 W/m 1,3 km/h (1 Bft) 96,42 %
19.12.2016 05:00 3,5 C 1,9 C 0,2 C 97 % 15 lf 1029,3 hPa 0,0 l/m 0,00 h 0,00 h 5 W/m 0,0 km/h (0 Bft) 95,37 %
19.12.2016 06:00 2,3 C 0,9 C -0,6 C 97 % 15 lf 1029,0 hPa 0,0 l/m 0,00 h 0,00 h 5 W/m 0,2 km/h (0 Bft) 96,06 %
19.12.2016 07:00 1,3 C 0,1 C -1,1 C 97 % 15 lf 1028,6 hPa 0,0 l/m 0,00 h 0,00 h 5 W/m 0,0 km/h (0 Bft) 94,88 %
19.12.2016 08:00 0,7 C 0,2 C -1,3 C 97 % 15 lf 1028,4 hPa 0,0 l/m 0,00 h 0,00 h 11 W/m 0,8 km/h (0 Bft) 98,29 %
19.12.2016 09:00 0,9 C 2,4 C 0,9 C 97 % 15 lf 1028,2 hPa 0,0 l/m 0,63 h 0,00 h 57 W/m 3,3 km/h (1 Bft) 96,44 %
19.12.2016 10:00 3,1 C 4,2 C 2,1 C 98 % 15 lf 1028,3 hPa 0,0 l/m 0,93 h 0,00 h 121 W/m 9,4 km/h (2 Bft) 94,03 %
19.12.2016 11:00 4,7 C 9,7 C 3,2 C 98 % 11 lf 1028,3 hPa 0,0 l/m 1,00 h 0,00 h 191 W/m 17,7 km/h (3 Bft) 96,66 %
19.12.2016 12:00 6,2 C 9,7 C 4,8 C 92 % 0 lf 1027,6 hPa 0,0 l/m 0,97 h 0,00 h 215 W/m 14,9 km/h (3 Bft) 95,78 %
19.12.2016 13:00 7,2 C 10,0 C 5,5 C 80 % 0 lf 1026,9 hPa 0,0 l/m 0,80 h 0,00 h 172 W/m 15,3 km/h (3 Bft) 97,01 %
19.12.2016 14:00 6,8 C 7,0 C 4,4 C 79 % 0 lf 1026,3 hPa 0,0 l/m 0,00 h 0,00 h 63 W/m 12,4 km/h (3 Bft) 95,65 %
19.12.2016 15:00 6,3 C 6,8 C 4,3 C 81 % 0 lf 1026,0 hPa 0,0 l/m 0,30 h 0,00 h 55 W/m 10,1 km/h (2 Bft) 94,95 %
19.12.2016 16:00 5,9 C 5,9 C 3,6 C 81 % 0 lf 1026,0 hPa 0,0 l/m 0,00 h 0,00 h 9 W/m 10,7 km/h (2 Bft) 95,38 %
19.12.2016 17:00 5,0 C 4,5 C 2,3 C 81 % 0 lf 1025,9 hPa 0,0 l/m 0,00 h 0,00 h 5 W/m 11,7 km/h (2 Bft) 97,08 %
19.12.2016 18:00 4,0 C 3,7 C 1,4 C 83 % 0 lf 1025,8 hPa 0,0 l/m 0,00 h 0,00 h 5 W/m 11,6 km/h (2 Bft) 95,10 %
19.12.2016 19:00 3,7 C 4,0 C 1,6 C 84 % 0 lf 1025,7 hPa 0,0 l/m 0,00 h 0,00 h 2 W/m 14,6 km/h (3 Bft) 95,95 %
19.12.2016 20:00 3,8 C 3,9 C 1,7 C 84 % 0 lf 1025,7 hPa 0,0 l/m 0,00 h 0,00 h 0 W/m 14,3 km/h (3 Bft) 95,73 %
19.12.2016 21:00 3,8 C 4,1 C 2,1 C 85 % 0 lf 1025,7 hPa 0,0 l/m 0,00 h 0,00 h 0 W/m 17,9 km/h (3 Bft) 95,94 %
19.12.2016 22:00 3,5 C 3,4 C 1,4 C 85 % 0 lf 1025,6 hPa 0,0 l/m 0,00 h 0,00 h 0 W/m 22,0 km/h (4 Bft) 95,80 %
19.12.2016 23:00 2,8 C 2,8 C 0,8 C 85 % 0 lf 1025,7 hPa 0,0 l/m 0,00 h 0,00 h 5 W/m 19,2 km/h (3 Bft) 97,94 %
20.12.2016 00:00 2,2 C 2,2 C 0,0 C 86 % 0 lf 1025,6 hPa 0,0 l/m 0,00 h 0,00 h 5 W/m 16,7 km/h (3 Bft) 91,62 %
20.12.2016 01:00 1,6 C 1,5 C -0,5 C 88 % 0 lf 1025,4 hPa 0,0 l/m 0,00 h 0,00 h 5 W/m 12,8 km/h (3 Bft) 98,01 %
20.12.2016 02:00 1,2 C 1,0 C -0,8 C 89 % 0 lf 1025,2 hPa 0,0 l/m 0,00 h 0,00 h 5 W/m 13,8 km/h (3 Bft) 96,72 %
20.12.2016 03:00 0,8 C 0,7 C -1,1 C 90 % 0 lf 1024,7 hPa 0,0 l/m 0,00 h 0,00 h 5 W/m 14,7 km/h (3 Bft) 95,23 %
20.12.2016 04:00 0,6 C 0,5 C -1,4 C 91 % 0 lf 1024,3 hPa 0,0 l/m 0,00 h 0,00 h 5 W/m 11,5 km/h (2 Bft) 94,72 %
20.12.2016 05:00 0,1 C -0,3 C -2,2 C 92 % 1 lf 1024,1 hPa 0,0 l/m 0,00 h 0,00 h 0 W/m 10,2 km/h (2 Bft) 95,37 %
20.12.2016 06:00 -0,3 C -0,1 C -2,0 C 93 % 1 lf 1023,7 hPa 0,0 l/m 0,00 h 0,00 h 0 W/m 14,5 km/h (3 Bft) 96,06 %
20.12.2016 07:00 -0,2 C 0,3 C -1,7 C 94 % 1 lf 1023,2 hPa 0,0 l/m 0,00 h 0,00 h 0 W/m 18,0 km/h (3 Bft) 95,93 %
20.12.2016 08:00 0,1 C 0,4 C -1,7 C 93 % 1 lf 1023,0 hPa 0,0 l/m 0,17 h 0,00 h 17 W/m 14,3 km/h (3 Bft) 95,09 %
20.12.2016 09:00 -0,0 C 0,6 C -1,7 C 93 % 0 lf 1023,1 hPa 0,0 l/m 0,33 h 0,00 h 47 W/m 8,4 km/h (2 Bft) 95,94 %
20.12.2016 10:00 0,5 C 2,2 C -0,3 C 94 % 0 lf 1022,9 hPa 0,0 l/m 0,53 h 0,00 h 112 W/m 9,9 km/h (2 Bft) 95,51 %
20.12.2016 11:00 2,5 C 7,0 C 1,5 C 92 % 0 lf 1022,6 hPa 0,0 l/m 1,00 h 0,00 h 190 W/m 15,8 km/h (3 Bft) 97,29 %
20.12.2016 12:00 4,4 C 7,6 C 2,9 C 82 % 0 lf 1021,7 hPa 0,0 l/m 0,97 h 0,00 h 205 W/m 14,1 km/h (3 Bft) 94,70 %
20.12.2016 13:00 5,6 C 10,0 C 3,9 C 80 % 0 lf 1021,0 hPa 0,0 l/m 1,00 h 0,00 h 179 W/m 8,9 km/h (2 Bft) 97,79 %
20.12.2016 14:00 6,4 C 8,8 C 3,9 C 76 % 0 lf 1020,6 hPa 0,0 l/m 0,80 h 0,00 h 118 W/m 9,0 km/h (2 Bft) 96,94 %
20.12.2016 15:00 5,3 C 4,7 C 1,2 C 79 % 0 lf 1020,8 hPa 0,0 l/m 0,00 h 0,00 h 40 W/m 5,9 km/h (2 Bft) 96,08 %
20.12.2016 16:00 3,7 C 1,7 C -1,5 C 81 % 0 lf 1021,0 hPa 0,0 l/m 0,00 h 0,00 h 10 W/m 1,7 km/h (1 Bft) 96,23 %
20.12.2016 17:00 1,9 C 0,5 C -2,5 C 85 % 1 lf 1020,9 hPa 0,0 l/m 0,00 h 0,00 h 5 W/m 2,0 km/h (1 Bft) 93,67 %
20.12.2016 18:00 0,5 C -0,8 C -3,0 C 87 % 3 lf 1020,8 hPa 0,0 l/m 0,00 h 0,00 h 4 W/m 0,5 km/h (0 Bft) 96,42 %
20.12.2016 19:00 -0,2 C -0,6 C -3,1 C 89 % 11 lf 1021,0 hPa 0,0 l/m 0,00 h 0,00 h 0 W/m 3,2 km/h (1 Bft) 96,51 %
20.12.2016 20:00 -0,4 C -0,3 C -3,1 C 92 % 15 lf 1021,5 hPa 0,0 l/m 0,00 h 0,00 h 0 W/m 5,4 km/h (1 Bft) 94,80 %
20.12.2016 21:00 0,0 C 0,6 C -2,2 C 94 % 15 lf 1022,2 hPa 0,0 l/m 0,00 h 0,00 h 0 W/m 7,3 km/h (2 Bft) 95,87 %
20.12.2016 22:00 0,1 C 0,3 C -2,1 C 95 % 15 lf 1022,5 hPa 0,0 l/m 0,00 h 0,00 h 0 W/m 7,1 km/h (2 Bft) 95,87 %
20.12.2016 23:00 -0,1 C 0,1 C -2,4 C 94 % 15 lf 1022,8 hPa 0,0 l/m 0,00 h 0,00 h 0 W/m 8,4 km/h (2 Bft) 94,61 %
21.12.2016 00:00 -0,4 C -0,4 C -2,7 C 94 % 12 lf 1023,1 hPa 0,0 l/m 0,00 h 0,00 h 0 W/m 8,2 km/h (2 Bft) 98,45 %
21.12.2016 01:00 -0,6 C -0,5 C -2,8 C 94 % 5 lf 1023,3 hPa 0,0 l/m 0,00 h 0,00 h 0 W/m 8,0 km/h (2 Bft) 95,11 %
21.12.2016 02:00 -0,7 C -0,6 C -2,8 C 94 % 3 lf 1023,7 hPa 0,0 l/m 0,00 h 0,00 h 0 W/m 8,1 km/h (2 Bft) 94,61 %
21.12.2016 03:00 -0,8 C -0,6 C -2,8 C 95 % 3 lf 1024,1 hPa 0,0 l/m 0,00 h 0,00 h 0 W/m 9,5 km/h (2 Bft) 96,22 %
21.12.2016 04:00 -0,8 C -0,6 C -2,7 C 95 % 2 lf 1024,3 hPa 0,0 l/m 0,00 h 0,00 h 0 W/m 12,2 km/h (2 Bft) 97,20 %
21.12.2016 05:00 -1,0 C -0,8 C -2,8 C 95 % 2 lf 1024,7 hPa 0,0 l/m 0,00 h 0,00 h 2 W/m 12,4 km/h (3 Bft) 95,70 %
21.12.2016 06:00 -1,2 C -1,1 C -2,9 C 95 % 2 lf 1024,9 hPa 0,0 l/m 0,00 h 0,00 h 0 W/m 10,1 km/h (2 Bft) 94,75 %
21.12.2016 07:00 -1,2 C -0,9 C -2,6 C 95 % 2 lf 1024,9 hPa 0,0 l/m 0,00 h 0,00 h 0 W/m 11,3 km/h (2 Bft) 96,45 %
21.12.2016 08:00 -0,7 C -0,2 C -2,0 C 96 % 1 lf 1025,0 hPa 0,0 l/m 0,07 h 0,00 h 13 W/m 18,0 km/h (3 Bft) 93,95 %
21.12.2016 09:00 -0,3 C 0,4 C -1,3 C 96 % 0 lf 1025,3 hPa 0,0 l/m 0,03 h 0,00 h 40 W/m 16,8 km/h (3 Bft) 98,29 %
21.12.2016 10:00 0,3 C 1,5 C -0,3 C 96 % 0 lf 1025,6 hPa 0,2 l/m 0,70 h 0,00 h 133 W/m 20,7 km/h (4 Bft) 96,01 %
21.12.2016 11:00 1,6 C 3,5 C 1,1 C 95 % 0 lf 1025,5 hPa 0,0 l/m 0,57 h 0,00 h 151 W/m 20,8 km/h (4 Bft) 93,67 %
21.12.2016 12:00 2,5 C 4,5 C 1,8 C 92 % 0 lf 1025,6 hPa 0,0 l/m 0,53 h 0,00 h 160 W/m 17,4 km/h (3 Bft) 97,75 %
21.12.2016 13:00 3,9 C 6,7 C 3,2 C 89 % 0 lf 1025,1 hPa 0,0 l/m 1,00 h 0,00 h 189 W/m 21,4 km/h (4 Bft) 96,51 %
21.12.2016 14:00 5,0 C 6,9 C 4,0 C 86 % 0 lf 1025,3 hPa 0,0 l/m 1,00 h 0,00 h 122 W/m 16,6 km/h (3 Bft) 95,95 %
21.12.2016 15:00 4,8 C 5,1 C 3,1 C 86 % 0 lf 1025,4 hPa 0,0 l/m 0,00 h 0,00 h 46 W/m 16,4 km/h (3 Bft) 95,57 %
21.12.2016 16:00 4,1 C 4,2 C 2,2 C 87 % 0 lf 1025,5 hPa 0,0 l/m 0,00 h 0,00 h 11 W/m 20,0 km/h (4 Bft) 96,26 %
21.12.2016 17:00 3,5 C 3,6 C 1,7 C 88 % 0 lf 1025,4 hPa 0,0 l/m 0,00 h 0,00 h 0 W/m 20,4 km/h (4 Bft) 94,24 %
21.12.2016 18:00 3,0 C 3,3 C 1,6 C 88 % 0 lf 1025,3 hPa 0,0 l/m 0,00 h 0,00 h 0 W/m 22,1 km/h (4 Bft) 97,54 %
21.12.2016 19:00 2,9 C 3,3 C 1,7 C 88 % 0 lf 1025,5 hPa 0,0 l/m 0,00 h 0,00 h 0 W/m 20,0 km/h (4 Bft) 95,23 %
21.12.2016 20:00 2,8 C 3,1 C 1,6 C 89 % 0 lf 1025,7 hPa 0,0 l/m 0,00 h 0,53 h 0 W/m 19,2 km/h (3 Bft) 96,32 %
21.12.2016 21:00 3,0 C 3,0 C 1,5 C 91 % 0 lf 1025,7 hPa 0,0 l/m 0,00 h 0,90 h 0 W/m 19,1 km/h (3 Bft) 95,09 %
21.12.2016 22:00 3,2 C 3,1 C 1,7 C 91 % 1 lf 1025,8 hPa 0,2 l/m 0,00 h 0,80 h 0 W/m 17,3 km/h (3 Bft) 94,80 %
21.12.2016 23:00 3,1 C 2,8 C 1,7 C 93 % 1 lf 1026,1 hPa 0,4 l/m 0,00 h 1,00 h 0 W/m 13,5 km/h (3 Bft) 96,64 %
22.12.2016 00:00 3,1 C 2,8 C 1,7 C 94 % 4 lf 1026,0 hPa 0,6 l/m 0,00 h 0,97 h 0 W/m 14,9 km/h (3 Bft) 97,05 %
22.12.2016 01:00 3,1 C 2,9 C 1,7 C 96 % 13 lf 1025,7 hPa 1,2 l/m 0,00 h 1,00 h 0 W/m 15,7 km/h (3 Bft) 94,37 %
22.12.2016 02:00 3,2 C 3,3 C 2,0 C 96 % 15 lf 1025,7 hPa 1,6 l/m 0,00 h 1,00 h 0 W/m 16,4 km/h (3 Bft) 96,22 %
22.12.2016 03:00 3,3 C 3,3 C 2,2 C 97 % 15 lf 1025,8 hPa 1,6 l/m 0,00 h 1,00 h 0 W/m 13,0 km/h (3 Bft) 97,47 %
22.12.2016 04:00 3,4 C 3,3 C 2,2 C 97 % 15 lf 1025,6 hPa 1,4 l/m 0,00 h 0,95 h 0 W/m 13,1 km/h (3 Bft) 95,08 %
22.12.2016 05:00 3,5 C 3,7 C 2,2 C 98 % 15 lf 1025,4 hPa 0,6 l/m 0,00 h 1,00 h 0 W/m 13,5 km/h (3 Bft) 97,72 %
22.12.2016 06:00 3,7 C 3,9 C 2,6 C 98 % 15 lf 1025,4 hPa 1,2 l/m 0,00 h 0,97 h 0 W/m 14,1 km/h (3 Bft) 93,90 %
22.12.2016 07:00 3,9 C 3,9 C 2,8 C 98 % 15 lf 1025,7 hPa 1,6 l/m 0,00 h 1,00 h 0 W/m 12,2 km/h (2 Bft) 96,35 %
22.12.2016 08:00 3,9 C 3,9 C 2,8 C 98 % 15 lf 1026,1 hPa 1,4 l/m 0,00 h 0,97 h 6 W/m 10,1 km/h (2 Bft) 96,29 %
22.12.2016 09:00 4,0 C 4,3 C 2,8 C 98 % 15 lf 1026,3 hPa 0,2 l/m 0,00 h 0,93 h 7 W/m 11,3 km/h (2 Bft) 96,94 %
22.12.2016 10:00 4,2 C 4,5 C 3,3 C 98 % 15 lf 1026,8 hPa 0,0 l/m 0,00 h 0,17 h 30 W/m 13,1 km/h (3 Bft) 93,61 %
22.12.2016 11:00 4,7 C 5,1 C 4,1 C 99 % 15 lf 1027,3 hPa 0,0 l/m 0,00 h 0,00 h 41 W/m 7,2 km/h (2 Bft) 95,16 %
22.12.2016 12:00 4,9 C 5,2 C 4,1 C 99 % 15 lf 1027,3 hPa 0,0 l/m 0,00 h 0,00 h 33 W/m 6,0 km/h (2 Bft) 97,79 %
22.12.2016 13:00 5,4 C 6,1 C 5,1 C 99 % 15 lf 1027,5 hPa 0,0 l/m 0,00 h 0,00 h 57 W/m 7,0 km/h (2 Bft) 94,73 %
22.12.2016 14:00 5,8 C 6,3 C 5,2 C 99 % 15 lf 1027,5 hPa 0,0 l/m 0,00 h 0,00 h 37 W/m 10,4 km/h (2 Bft) 95,09 %
22.12.2016 15:00 5,7 C 6,1 C 4,8 C 99 % 12 lf 1027,8 hPa 0,0 l/m 0,00 h 0,00 h 17 W/m 8,4 km/h (2 Bft) 97,09 %
22.12.2016 16:00 5,7 C 6,1 C 4,4 C 99 % 2 lf 1028,3 hPa 0,0 l/m 0,00 h 0,00 h 6 W/m 6,3 km/h (2 Bft) 95,17 %
22.12.2016 17:00 5,7 C 6,0 C 4,4 C 99 % 1 lf 1028,8 hPa 0,0 l/m 0,00 h 0,00 h 0 W/m 6,4 km/h (2 Bft) 96,94 %
22.12.2016 18:00 5,7 C 6,1 C 4,4 C 99 % 1 lf 1029,4 hPa 0,0 l/m 0,00 h 0,00 h 0 W/m 5,3 km/h (1 Bft) 95,94 %
22.12.2016 19:00 5,7 C 6,1 C 4,4 C 99 % 1 lf 1029,9 hPa 0,0 l/m 0,00 h 0,00 h 0 W/m 6,7 km/h (2 Bft) 93,38 %
22.12.2016 20:00 5,8 C 6,1 C 4,4 C 99 % 1 lf 1030,4 hPa 0,0 l/m 0,00 h 0,00 h 0 W/m 10,5 km/h (2 Bft) 97,52 %
22.12.2016 21:00 5,8 C 6,1 C 4,4 C 98 % 1 lf 1031,1 hPa 0,0 l/m 0,00 h 0,00 h 0 W/m 13,8 km/h (3 Bft) 97,10 %
22.12.2016 22:00 5,8 C 6,1 C 4,4 C 98 % 1 lf 1031,5 hPa 0,0 l/m 0,00 h 0,00 h 0 W/m 14,0 km/h (3 Bft) 93,10 %
22.12.2016 23:00 5,7 C 5,7 C 3,8 C 97 % 2 lf 1030,8 hPa 0,0 l/m 0,00 h 0,00 h 0 W/m 11,7 km/h (2 Bft) 98,35 %
23.12.2016 00:00 5,7 C 6,1 C 4,4 C 97 % 1 lf 1031,1 hPa 0,0 l/m 0,00 h 0,00 h 0 W/m 10,1 km/h (2 Bft) 96,74 %
23.12.2016 01:00 5,8 C 5,9 C 4,2 C 97 % 1 lf 1032,0 hPa 0,0 l/m 0,00 h 0,00 h 0 W/m 8,2 km/h (2 Bft) 98,41 %
23.12.2016 02:00 5,4 C 5,2 C 2,9 C 97 % 5 lf 1032,4 hPa 0,0 l/m 0,00 h 0,00 h 0 W/m 9,8 km/h (2 Bft) 96,30 %
23.12.2016 03:00 4,8 C 4,4 C 2,4 C 97 % 15 lf 1032,6 hPa 0,0 l/m 0,00 h 0,00 h 0 W/m 9,7 km/h (2 Bft) 97,46 %
23.12.2016 04:00 4,6 C 4,4 C 2,6 C 97 % 15 lf 1032,6 hPa 0,0 l/m 0,00 h 0,00 h 0 W/m 12,9 km/h (3 Bft) 96,74 %
23.12.2016 05:00 4,4 C 4,4 C 2,3 C 97 % 15 lf 1032,5 hPa 0,0 l/m 0,00 h 0,00 h 0 W/m 10,0 km/h (2 Bft) 96,06 %
23.12.2016 06:00 4,2 C 4,3 C 2,1 C 97 % 15 lf 1032,5 hPa 0,0 l/m 0,00 h 0,00 h 0 W/m 9,8 km/h (2 Bft) 96,91 %
23.12.2016 07:00 3,8 C 3,8 C 1,2 C 97 % 15 lf 1032,8 hPa 0,0 l/m 0,00 h 0,00 h 0 W/m 5,9 km/h (2 Bft) 93,32 %
23.12.2016 08:00 3,7 C 4,3 C 2,3 C 97 % 14 lf 1032,9 hPa 0,0 l/m 0,00 h 0,03 h 7 W/m 8,3 km/h (2 Bft) 96,31 %
23.12.2016 09:00 4,2 C 5,0 C 3,1 C 98 % 2 lf 1033,3 hPa 0,0 l/m 0,00 h 0,03 h 19 W/m 7,6 km/h (2 Bft) 97,94 %
23.12.2016 10:00 5,0 C 6,2 C 4,5 C 98 % 0 lf 1033,4 hPa 0,0 l/m 0,00 h 0,00 h 47 W/m 8,9 km/h (2 Bft) 94,26 %
23.12.2016 11:00 6,0 C 8,3 C 6,3 C 98 % 0 lf 1033,0 hPa 0,0 l/m 0,07 h 0,00 h 103 W/m 13,5 km/h (3 Bft) 95,13 %
23.12.2016 12:00 8,1 C 11,7 C 7,8 C 92 % 0 lf 1032,1 hPa 0,0 l/m 0,97 h 0,00 h 216 W/m 17,4 km/h (3 Bft) 97,79 %
23.12.2016 13:00 8,9 C 10,4 C 8,1 C 84 % 0 lf 1031,1 hPa 0,0 l/m 0,57 h 0,00 h 140 W/m 19,4 km/h (3 Bft) 93,68 %
23.12.2016 14:00 8,7 C 9,6 C 7,4 C 84 % 0 lf 1030,2 hPa 0,0 l/m 0,23 h 0,00 h 97 W/m 14,2 km/h (3 Bft) 96,45 %
23.12.2016 15:00 8,5 C 8,5 C 6,3 C 86 % 0 lf 1029,3 hPa 0,0 l/m 0,27 h 0,00 h 53 W/m 10,6 km/h (2 Bft) 96,30 %
23.12.2016 16:00 6,9 C 6,4 C 4,4 C 89 % 0 lf 1029,1 hPa 0,0 l/m 0,07 h 0,00 h 11 W/m 10,8 km/h (2 Bft) 94,95 %
23.12.2016 17:00 5,7 C 5,3 C 3,1 C 92 % 1 lf 1028,7 hPa 0,0 l/m 0,00 h 0,00 h 4 W/m 8,7 km/h (2 Bft) 97,72 %
23.12.2016 18:00 5,2 C 5,8 C 3,4 C 91 % 0 lf 1028,0 hPa 0,0 l/m 0,00 h 0,00 h 5 W/m 15,8 km/h (3 Bft) 94,59 %
23.12.2016 19:00 5,3 C 5,4 C 3,3 C 87 % 0 lf 1027,1 hPa 0,0 l/m 0,00 h 0,00 h 5 W/m 22,6 km/h (4 Bft) 95,13 %
23.12.2016 20:00 4,9 C 5,0 C 2,9 C 87 % 0 lf 1026,7 hPa 0,2 l/m 0,00 h 0,00 h 2 W/m 21,3 km/h (4 Bft) 97,79 %
23.12.2016 21:00 4,6 C 4,6 C 2,8 C 88 % 0 lf 1026,3 hPa 0,0 l/m 0,00 h 0,00 h 0 W/m 17,0 km/h (3 Bft) 95,17 %
23.12.2016 22:00 4,4 C 4,9 C 3,0 C 90 % 0 lf 1025,1 hPa 0,0 l/m 0,00 h 0,00 h 0 W/m 20,6 km/h (4 Bft) 94,73 %
23.12.2016 23:00 5,0 C 5,6 C 3,8 C 90 % 0 lf 1024,1 hPa 0,0 l/m 0,00 h 0,00 h 0 W/m 18,7 km/h (3 Bft) 94,23 %
24.12.2016 00:00 6,3 C 7,0 C 5,3 C 89 % 0 lf 1023,3 hPa 0,0 l/m 0,00 h 0,00 h 0 W/m 23,9 km/h (4 Bft) 96,25 %
24.12.2016 01:00 7,1 C 6,7 C 5,1 C 90 % 13 lf 1022,9 hPa 0,0 l/m 0,00 h 0,27 h 0 W/m 28,3 km/h (4 Bft) 95,94 %
24.12.2016 02:00 6,8 C 6,7 C 5,0 C 95 % 15 lf 1022,9 hPa 0,4 l/m 0,00 h 0,77 h 0 W/m 29,9 km/h (5 Bft) 95,80 %
24.12.2016 03:00 6,7 C 6,7 C 5,0 C 96 % 15 lf 1023,2 hPa 0,2 l/m 0,00 h 0,47 h 0 W/m 26,5 km/h (4 Bft) 95,37 %
24.12.2016 04:00 6,7 C 6,7 C 5,1 C 97 % 15 lf 1023,3 hPa 0,0 l/m 0,00 h 0,33 h 0 W/m 26,6 km/h (4 Bft) 95,51 %
24.12.2016 05:00 6,9 C 6,7 C 5,6 C 97 % 15 lf 1023,5 hPa 0,0 l/m 0,00 h 0,03 h 0 W/m 23,3 km/h (4 Bft) 97,09 %
24.12.2016 06:00 6,9 C 6,8 C 5,2 C 97 % 15 lf 1023,5 hPa 0,0 l/m 0,00 h 0,00 h 0 W/m 18,4 km/h (3 Bft) 95,89 %
24.12.2016 07:00 7,1 C 7,0 C 5,5 C 97 % 15 lf 1024,0 hPa 0,0 l/m 0,00 h 0,10 h 0 W/m 20,0 km/h (4 Bft) 93,81 %
24.12.2016 08:00 7,3 C 7,2 C 5,6 C 97 % 4 lf 1024,1 hPa 0,0 l/m 0,00 h 0,00 h 8 W/m 20,4 km/h (4 Bft) 97,37 %
24.12.2016 09:00 7,2 C 7,3 C 5,6 C 96 % 0 lf 1024,3 hPa 0,0 l/m 0,03 h 0,00 h 32 W/m 19,8 km/h (4 Bft) 97,08 %
24.12.2016 10:00 7,5 C 8,2 C 6,3 C 95 % 0 lf 1024,9 hPa 0,0 l/m 0,03 h 0,00 h 59 W/m 25,5 km/h (4 Bft) 94,31 %
24.12.2016 11:00 7,6 C 8,4 C 6,0 C 93 % 0 lf 1025,1 hPa 0,0 l/m 0,00 h 0,00 h 82 W/m 21,9 km/h (4 Bft) 97,01 %
24.12.2016 12:00 7,8 C 9,6 C 6,7 C 87 % 0 lf 1024,8 hPa 0,0 l/m 0,43 h 0,00 h 147 W/m 32,2 km/h (5 Bft) 94,44 %
24.12.2016 13:00 7,6 C 8,7 C 6,1 C 84 % 0 lf 1024,7 hPa 0,0 l/m 0,00 h 0,00 h 98 W/m 28,7 km/h (4 Bft) 96,72 %
24.12.2016 14:00 7,7 C 8,5 C 6,4 C 82 % 0 lf 1024,7 hPa 0,0 l/m 0,00 h 0,00 h 84 W/m 30,8 km/h (5 Bft) 95,30 %
24.12.2016 15:00 7,7 C 8,0 C 6,1 C 82 % 0 lf 1024,7 hPa 0,0 l/m 0,00 h 0,00 h 42 W/m 29,9 km/h (5 Bft) 95,45 %
24.12.2016 16:00 7,4 C 7,4 C 5,6 C 83 % 0 lf 1024,7 hPa 0,0 l/m 0,00 h 0,00 h 8 W/m 25,2 km/h (4 Bft) 96,01 %
24.12.2016 17:00 7,3 C 7,2 C 5,6 C 84 % 0 lf 1024,9 hPa 0,0 l/m 0,00 h 0,00 h 0 W/m 25,5 km/h (4 Bft) 97,01 %
24.12.2016 18:00 7,3 C 7,2 C 5,6 C 86 % 0 lf 1024,9 hPa 0,0 l/m 0,00 h 0,00 h 0 W/m 27,4 km/h (4 Bft) 94,96 %
24.12.2016 19:00 7,4 C 7,7 C 5,7 C 88 % 0 lf 1024,8 hPa 0,0 l/m 0,00 h 0,00 h 0 W/m 30,3 km/h (5 Bft) 95,59 %
24.12.2016 20:00 7,7 C 7,9 C 6,3 C 88 % 0 lf 1024,8 hPa 0,0 l/m 0,00 h 0,00 h 0 W/m 30,4 km/h (5 Bft) 95,37 %
24.12.2016 21:00 8,1 C 8,3 C 6,7 C 87 % 0 lf 1025,0 hPa 0,0 l/m 0,00 h 0,00 h 0 W/m 30,8 km/h (5 Bft) 97,60 %
24.12.2016 22:00 8,3 C 8,4 C 6,8 C 87 % 0 lf 1025,0 hPa 0,0 l/m 0,00 h 0,00 h 0 W/m 31,0 km/h (5 Bft) 94,66 %
24.12.2016 23:00 8,4 C 8,3 C 6,3 C 87 % 11 lf 1025,0 hPa 0,0 l/m 0,00 h 0,87 h 0 W/m 31,7 km/h (5 Bft) 95,51 %
25.12.2016 00:00 8,1 C 7,6 C 5,6 C 90 % 15 lf 1025,0 hPa 0,4 l/m 0,00 h 0,93 h 0 W/m 24,0 km/h (4 Bft) 97,02 %
25.12.2016 01:00 7,7 C 7,2 C 5,6 C 93 % 15 lf 1024,7 hPa 0,4 l/m 0,00 h 0,77 h 0 W/m 24,0 km/h (4 Bft) 95,16 %
25.12.2016 02:00 7,6 C 7,2 C 5,7 C 95 % 15 lf 1024,5 hPa 0,2 l/m 0,00 h 0,00 h 0 W/m 27,8 km/h (4 Bft) 97,08 %
25.12.2016 03:00 7,9 C 7,5 C 6,1 C 94 % 5 lf 1024,1 hPa 0,0 l/m 0,00 h 0,10 h 0 W/m 31,3 km/h (5 Bft) 94,66 %
25.12.2016 04:00 8,1 C 7,5 C 5,8 C 92 % 0 lf 1023,6 hPa 0,0 l/m 0,00 h 0,03 h 0 W/m 30,7 km/h (5 Bft) 96,67 %
25.12.2016 05:00 8,2 C 7,8 C 6,2 C 92 % 2 lf 1023,2 hPa 0,0 l/m 0,00 h 0,27 h 0 W/m 28,8 km/h (5 Bft) 97,79 %
25.12.2016 06:00 8,3 C 7,8 C 6,2 C 93 % 15 lf 1022,7 hPa 0,2 l/m 0,00 h 0,87 h 0 W/m 31,5 km/h (5 Bft) 95,00 %
25.12.2016 07:00 8,6 C 8,7 C 6,7 C 93 % 7 lf 1022,7 hPa 0,0 l/m 0,00 h 0,60 h 0 W/m 33,4 km/h (5 Bft) 93,95 %
25.12.2016 08:00 8,7 C 8,9 C 6,8 C 93 % 0 lf 1022,7 hPa 0,0 l/m 0,00 h 0,37 h 5 W/m 37,7 km/h (5 Bft) 97,72 %
25.12.2016 09:00 8,8 C 8,9 C 7,2 C 93 % 0 lf 1023,0 hPa 0,0 l/m 0,00 h 0,00 h 13 W/m 34,8 km/h (5 Bft) 96,51 %
25.12.2016 10:00 8,7 C 8,9 C 7,3 C 94 % 4 lf 1023,4 hPa 0,0 l/m 0,00 h 0,00 h 24 W/m 29,1 km/h (5 Bft) 95,59 %
25.12.2016 11:00 9,0 C 9,4 C 7,8 C 94 % 0 lf 1023,5 hPa 0,0 l/m 0,00 h 0,00 h 26 W/m 34,3 km/h (5 Bft) 93,81 %
25.12.2016 12:00 9,2 C 9,4 C 8,3 C 93 % 0 lf 1023,3 hPa 0,0 l/m 0,00 h 0,00 h 43 W/m 40,5 km/h (6 Bft) 97,49 %
25.12.2016 13:00 9,2 C 9,4 C 8,3 C 93 % 0 lf 1023,0 hPa 0,0 l/m 0,00 h 0,00 h 43 W/m 38,4 km/h (5 Bft) 95,80 %
25.12.2016 14:00 9,2 C 9,4 C 8,3 C 93 % 0 lf 1022,9 hPa 0,0 l/m 0,00 h 0,00 h 30 W/m 36,1 km/h (5 Bft) 95,38 %
25.12.2016 15:00 9,3 C 9,4 C 8,1 C 94 % 0 lf 1023,2 hPa 0,0 l/m 0,00 h 0,00 h 17 W/m 38,2 km/h (5 Bft) 95,65 %
25.12.2016 16:00 9,2 C 9,4 C 7,8 C 95 % 1 lf 1023,4 hPa 0,0 l/m 0,00 h 0,00 h 6 W/m 31,6 km/h (5 Bft) 95,16 %
25.12.2016 17:00 9,3 C 9,4 C 7,8 C 95 % 0 lf 1023,5 hPa 0,0 l/m 0,00 h 0,00 h 0 W/m 32,3 km/h (5 Bft) 97,15 %
25.12.2016 18:00 9,2 C 9,0 C 7,8 C 96 % 14 lf 1023,7 hPa 0,0 l/m 0,00 h 0,00 h 0 W/m 32,0 km/h (5 Bft) 95,98 %
25.12.2016 19:00 9,0 C 8,9 C 7,7 C 97 % 15 lf 1023,7 hPa 0,0 l/m 0,00 h 0,20 h 0 W/m 29,6 km/h (5 Bft) 93,95 %
25.12.2016 20:00 9,2 C 9,1 C 7,8 C 98 % 15 lf 1023,6 hPa 0,0 l/m 0,00 h 0,30 h 2 W/m 29,6 km/h (5 Bft) 97,29 %
25.12.2016 21:00 9,4 C 9,4 C 7,8 C 98 % 15 lf 1023,6 hPa 0,2 l/m 0,00 h 0,47 h 2 W/m 28,5 km/h (4 Bft) 97,30 %
25.12.2016 22:00 9,4 C 9,4 C 7,8 C 98 % 15 lf 1023,7 hPa 0,0 l/m 0,00 h 0,57 h 2 W/m 25,0 km/h (4 Bft) 94,02 %
25.12.2016 23:00 9,6 C 9,4 C 8,1 C 98 % 15 lf 1023,9 hPa 0,0 l/m 0,00 h 0,57 h 2 W/m 24,4 km/h (4 Bft) 96,15 %
Min-Datum _ 21.12.16 20.12.16 20.12.16 20.12.16 19.12.16 20.12.16 - - - - 19.12.16 23.12.16
_ Min-Zeit 06:36 18:12 18:34 14:18 11:48 14:22 - - - - 00:24 05:33
Minimum _ -1,3 C -1,1 C -3,3 C 75 % 0 lf 1020,4 hPa - - - - 0,0 km/h (0 Bft) 43,48 %
Max-Datum _ 25.12.16 20.12.16 23.12.16 22.12.16 19.12.16 23.12.16 22.12.16 19.12.16 21.12.16 23.12.16 25.12.16 19.12.16
_ Max-Zeit 23:34 14:06 12:18 10:02 04:40 10:06 02:06 09:00 20:02 12:16 15:20 03:24
Maximum _ 9,7 C 13,9 C 8,3 C 99 % 15 lf 1033,6 hPa 1,6 l/m 0,03 h 0,03 h 335 W/m 54,4 km/h
W-SW (7 Bft)
100,00 %
Durchschnitt _ 4,8 C 5,1 C 3,1 C 92 % 5 lf 1025,9 hPa #14,4 l/m #16:00 h #22:15 h 49 W/m 16,6 km/h (3 Bft) 95,90 %
© 2016 W. Hausmann